Time;durP1;ratioP1;P1;durP2;ratioP2;P2;SDS_P1;SDS_P2;PMS_P1;PMS_P2;Temp;Humidity;BMP_temperature;BMP_pressure;BME280_temperature;BME280_humidity;BME280_pressure;Samples;Min_cycle;Max_cycle;Signal;HPM_P1;HPM_P2
2022/08/09 00:00:23;;;;;;;2.67;1.70;;;21.50;58.50;;;;;;6059888;23;20756;-73
2022/08/09 00:02:51;;;;;;;1.97;1.87;;;21.50;58.80;;;;;;6060738;23;20471;-73
2022/08/09 00:05:19;;;;;;;1.73;1.50;;;21.50;59.20;;;;;;6061981;23;20444;-74
2022/08/09 00:07:46;;;;;;;4.00;2.10;;;21.40;59.60;;;;;;6055704;23;20489;-74
2022/08/09 00:10:13;;;;;;;1.80;1.70;;;21.40;60.20;;;;;;6060357;23;20899;-74
2022/08/09 00:12:40;;;;;;;2.87;1.87;;;21.30;60.70;;;;;;6056590;23;20597;-74
2022/08/09 00:15:10;;;;;;;2.80;2.03;;;21.10;60.80;;;;;;6058623;23;20470;-74
2022/08/09 00:17:37;;;;;;;3.07;2.00;;;20.90;61.70;;;;;;6060017;23;20535;-74
2022/08/09 00:20:05;;;;;;;1.70;1.50;;;20.70;61.90;;;;;;6058475;23;20442;-74
2022/08/09 00:22:32;;;;;;;1.80;1.70;;;20.60;62.40;;;;;;6062119;23;20547;-74
2022/08/09 00:25:00;;;;;;;2.07;1.97;;;20.60;62.70;;;;;;6052030;23;20481;-74
2022/08/09 00:27:27;;;;;;;2.07;1.93;;;20.30;62.60;;;;;;6059782;23;20439;-73
2022/08/09 00:29:54;;;;;;;1.73;1.63;;;20.20;62.90;;;;;;6057036;23;20497;-73
2022/08/09 00:32:23;;;;;;;1.93;1.80;;;20.20;64.30;;;;;;6055297;23;20541;-73
2022/08/09 00:34:50;;;;;;;1.87;1.77;;;20.20;64.40;;;;;;6060545;23;20481;-73
2022/08/09 00:37:17;;;;;;;2.97;1.80;;;20.20;64.80;;;;;;6058593;23;20477;-74
2022/08/09 00:39:44;;;;;;;1.90;1.80;;;20.20;64.60;;;;;;6059756;23;20472;-73
2022/08/09 00:42:11;;;;;;;1.80;1.70;;;20.30;63.40;;;;;;6060379;23;20513;-74
2022/08/09 00:44:39;;;;;;;2.30;2.00;;;20.30;62.90;;;;;;6051727;23;20918;-73
2022/08/09 00:47:07;;;;;;;2.00;1.80;;;20.30;63.00;;;;;;6058294;23;20478;-73
2022/08/09 00:49:35;;;;;;;2.27;2.07;;;20.30;63.50;;;;;;6057350;23;20867;-73
2022/08/09 00:52:03;;;;;;;1.80;1.70;;;20.30;64.10;;;;;;6060701;23;20513;-74
2022/08/09 00:54:30;;;;;;;1.93;1.80;;;20.30;64.30;;;;;;6060291;23;20503;-74
2022/08/09 00:56:57;;;;;;;2.00;1.87;;;20.50;64.70;;;;;;6063594;23;20488;-72
2022/08/09 00:59:24;;;;;;;1.97;1.70;;;20.40;64.70;;;;;;6060224;23;20458;-72
2022/08/09 01:01:52;;;;;;;1.70;1.60;;;20.40;64.80;;;;;;6054543;23;20482;-72
2022/08/09 01:04:25;;;;;;;2.90;1.70;;;20.50;65.10;;;;;;6060473;23;20439;-72
2022/08/09 01:07:02;;;;;;;2.30;2.07;;;20.50;65.10;;;;;;6045180;23;20449;-72
2022/08/09 01:09:37;;;;;;;1.73;1.63;;;20.50;65.10;;;;;;6059101;23;20514;-72
2022/08/09 01:12:11;;;;;;;1.80;1.70;;;20.50;66.30;;;;;;6058616;23;20478;-72
2022/08/09 01:14:52;;;;;;;2.40;2.03;;;20.40;65.60;;;;;;6055856;23;20471;-72
2022/08/09 01:17:25;;;;;;;1.90;1.80;;;20.40;65.40;;;;;;6059891;23;20472;-72
2022/08/09 01:19:56;;;;;;;3.00;2.00;;;20.30;65.90;;;;;;6064290;23;20439;-72
2022/08/09 01:22:50;;;;;;;2.00;1.63;;;20.30;66.40;;;;;;6051825;23;20461;-71
2022/08/09 01:25:26;;;;;;;3.23;2.10;;;20.20;65.50;;;;;;6061473;23;20447;-72
2022/08/09 01:27:57;;;;;;;2.30;2.10;;;20.20;66.50;;;;;;6061624;23;20458;-72
2022/08/09 01:30:28;;;;;;;2.47;1.67;;;20.10;66.60;;;;;;6062787;23;20516;-72
2022/08/09 01:32:57;;;;;;;3.33;2.10;;;19.90;66.80;;;;;;6059707;23;20498;-72
2022/08/09 01:35:34;;;;;;;2.30;2.10;;;19.80;67.00;;;;;;6057475;23;20480;-72
2022/08/09 01:38:07;;;;;;;2.80;1.70;;;19.80;67.70;;;;;;6060375;23;20455;-72
2022/08/09 01:40:35;;;;;;;5.20;2.07;;;19.60;67.20;;;;;;6058083;23;21233;-72
2022/08/09 01:43:05;;;;;;;2.37;2.10;;;19.50;67.70;;;;;;6060769;23;21039;-72
2022/08/09 01:45:33;;;;;;;2.47;2.27;;;19.50;67.90;;;;;;6056917;23;20930;-72
2022/08/09 01:48:02;;;;;;;1.97;1.87;;;19.50;67.90;;;;;;6060425;23;20475;-72
2022/08/09 01:50:30;;;;;;;2.93;2.10;;;19.50;68.60;;;;;;6058156;23;20518;-72
2022/08/09 01:52:59;;;;;;;2.83;1.63;;;19.50;68.10;;;;;;6060005;23;20471;-72
2022/08/09 01:55:28;;;;;;;2.60;2.17;;;19.40;68.10;;;;;;6051862;23;20539;-72
2022/08/09 01:57:57;;;;;;;2.03;1.83;;;19.40;68.50;;;;;;6062203;23;20536;-72
2022/08/09 02:00:27;;;;;;;2.40;2.10;;;19.40;68.70;;;;;;6068475;23;20514;-72
2022/08/09 02:02:55;;;;;;;1.73;1.60;;;19.40;69.10;;;;;;6059550;23;20479;-72
2022/08/09 02:05:24;;;;;;;2.43;2.23;;;19.40;69.00;;;;;;6060670;23;20526;-73
2022/08/09 02:07:55;;;;;;;1.70;1.60;;;19.40;69.60;;;;;;6057929;23;20519;-72
2022/08/09 02:10:25;;;;;;;1.97;1.87;;;19.30;69.60;;;;;;6054197;23;20439;-72
2022/08/09 02:12:54;;;;;;;1.77;1.67;;;19.30;69.50;;;;;;6055338;23;20467;-72
2022/08/09 02:15:25;;;;;;;2.00;1.80;;;19.30;69.30;;;;;;6053927;23;20906;-72
2022/08/09 02:17:54;;;;;;;2.23;1.97;;;19.30;69.00;;;;;;6059681;23;20815;-72
2022/08/09 02:20:21;;;;;;;2.07;1.80;;;19.20;69.00;;;;;;6056399;23;20942;-72
2022/08/09 02:22:52;;;;;;;2.20;2.00;;;19.20;69.20;;;;;;6058280;23;20992;-72
2022/08/09 02:25:23;;;;;;;2.00;1.90;;;19.20;69.70;;;;;;6048850;23;20613;-72
2022/08/09 02:27:56;;;;;;;2.60;2.00;;;19.10;70.00;;;;;;6058856;23;20448;-72
2022/08/09 02:30:26;;;;;;;2.40;1.73;;;19.00;70.40;;;;;;6056657;23;20443;-72
2022/08/09 02:32:54;;;;;;;3.23;1.80;;;19.00;71.00;;;;;;6059815;23;20459;-72
2022/08/09 02:35:26;;;;;;;1.73;1.63;;;18.80;71.90;;;;;;6058462;23;20510;-72
2022/08/09 02:37:58;;;;;;;1.80;1.70;;;18.70;72.70;;;;;;6058203;23;20949;-72
2022/08/09 02:40:28;;;;;;;2.83;2.00;;;18.60;73.70;;;;;;6057141;23;20465;-72
2022/08/09 02:42:56;;;;;;;2.10;1.93;;;18.40;74.90;;;;;;6052905;23;20869;-72
2022/08/09 02:45:28;;;;;;;2.83;2.20;;;18.30;76.00;;;;;;6059441;23;20444;-72
2022/08/09 02:48:01;;;;;;;2.40;2.20;;;18.20;76.90;;;;;;6060129;23;20450;-72
2022/08/09 02:50:34;;;;;;;2.37;2.10;;;18.10;77.70;;;;;;6061803;23;20442;-72
2022/08/09 02:53:04;;;;;;;1.83;1.73;;;18.10;78.20;;;;;;6060122;23;20509;-73
2022/08/09 02:55:33;;;;;;;2.47;2.27;;;18.10;79.00;;;;;;6057847;23;20509;-74
2022/08/09 02:58:01;;;;;;;2.40;2.20;;;18.00;79.20;;;;;;6060871;23;20463;-74
2022/08/09 03:00:30;;;;;;;1.93;1.83;;;18.00;79.70;;;;;;6057211;23;20443;-74
2022/08/09 03:02:59;;;;;;;2.93;2.17;;;18.10;80.20;;;;;;6060902;23;20469;-73
2022/08/09 03:05:28;;;;;;;3.27;3.07;;;18.10;80.70;;;;;;6057731;23;20455;-73
2022/08/09 03:07:55;;;;;;;2.23;1.87;;;18.00;81.00;;;;;;6058892;23;20443;-74
2022/08/09 03:10:24;;;;;;;2.20;1.87;;;18.00;81.50;;;;;;6060074;23;20778;-75
2022/08/09 03:12:52;;;;;;;2.63;2.30;;;18.10;81.90;;;;;;6060318;23;20477;-75
2022/08/09 03:15:20;;;;;;;2.30;2.10;;;18.10;82.60;;;;;;6057692;23;20506;-74
2022/08/09 03:17:50;;;;;;;2.20;2.00;;;18.10;83.20;;;;;;6058537;23;20443;-74
2022/08/09 03:20:18;;;;;;;1.97;1.87;;;18.20;82.20;;;;;;6057807;23;20564;-74
2022/08/09 03:22:47;;;;;;;2.10;1.90;;;18.20;81.70;;;;;;6059591;23;20494;-74
2022/08/09 03:25:14;;;;;;;3.07;2.00;;;18.20;81.30;;;;;;6056923;23;20438;-75
2022/08/09 03:27:43;;;;;;;1.87;1.73;;;18.30;80.80;;;;;;6058229;23;20456;-75
2022/08/09 03:30:12;;;;;;;2.97;2.70;;;18.30;81.20;;;;;;6044861;23;20504;-75
2022/08/09 03:32:40;;;;;;;2.63;2.43;;;18.30;81.40;;;;;;6058278;23;20506;-76
2022/08/09 03:35:11;;;;;;;2.87;2.00;;;18.30;83.50;;;;;;6053400;23;20599;-77
2022/08/09 03:37:39;;;;;;;2.53;2.30;;;18.30;83.70;;;;;;6042690;23;20439;-76
2022/08/09 03:40:08;;;;;;;2.90;2.70;;;18.20;83.30;;;;;;6050620;23;20835;-75
2022/08/09 03:42:35;;;;;;;3.40;2.30;;;18.10;83.90;;;;;;6055432;23;20451;-75
2022/08/09 03:45:02;;;;;;;2.63;2.43;;;18.00;84.70;;;;;;6058406;23;20490;-75
2022/08/09 03:47:29;;;;;;;2.63;2.43;;;18.00;85.10;;;;;;6052865;23;20420;-74
2022/08/09 03:49:57;;;;;;;3.10;2.30;;;18.10;85.70;;;;;;6049891;23;21096;-75
2022/08/09 03:52:27;;;;;;;2.60;2.40;;;17.90;86.10;;;;;;6060876;23;20494;-74
2022/08/09 03:54:56;;;;;;;2.50;2.30;;;17.80;86.60;;;;;;6061590;23;20517;-74
2022/08/09 03:57:23;;;;;;;2.10;2.00;;;17.80;87.50;;;;;;6060887;23;20513;-74
2022/08/09 03:59:52;;;;;;;3.07;2.60;;;17.70;88.50;;;;;;6062109;23;20419;-74
2022/08/09 04:02:20;;;;;;;3.23;2.70;;;17.70;89.30;;;;;;6060969;23;20814;-78
2022/08/09 04:04:47;;;;;;;2.40;2.20;;;17.60;90.10;;;;;;6062114;23;20451;-79
2022/08/09 04:07:14;;;;;;;2.93;2.73;;;17.40;90.50;;;;;;6052852;23;21023;-71
2022/08/09 04:09:43;;;;;;;3.50;2.40;;;17.30;90.70;;;;;;6051165;23;20419;-71
2022/08/09 04:12:44;;;;;;;2.47;2.30;;;17.30;90.80;;;;;;6050223;23;20521;-76
2022/08/09 04:15:12;;;;;;;2.20;2.10;;;17.30;90.90;;;;;;5997061;23;20470;-79
2022/08/09 04:17:39;;;;;;;2.77;2.60;;;17.30;91.10;;;;;;6061542;23;20459;-78
2022/08/09 04:20:07;;;;;;;2.53;2.33;;;17.20;91.30;;;;;;6064592;23;20439;-80
2022/08/09 04:22:35;;;;;;;2.43;2.20;;;17.30;91.50;;;;;;6056947;23;20585;-72
2022/08/09 04:25:04;;;;;;;2.83;2.43;;;17.20;91.60;;;;;;6070425;23;20442;-76
2022/08/09 04:27:32;;;;;;;2.90;2.70;;;17.30;91.90;;;;;;6074452;23;20459;-76
2022/08/09 04:29:59;;;;;;;2.77;2.30;;;17.30;92.10;;;;;;6060344;23;20505;-76
2022/08/09 04:32:28;;;;;;;2.33;2.13;;;17.20;92.20;;;;;;6054110;23;20460;-76
2022/08/09 04:34:56;;;;;;;2.50;2.30;;;17.20;92.50;;;;;;6033046;23;20452;-76
2022/08/09 04:37:24;;;;;;;3.67;2.50;;;17.20;92.50;;;;;;6033838;23;20931;-76
2022/08/09 04:39:51;;;;;;;2.53;2.30;;;17.30;92.70;;;;;;6033935;23;20699;-76
2022/08/09 04:42:19;;;;;;;2.50;2.30;;;17.30;92.60;;;;;;6033730;23;20472;-76
2022/08/09 04:44:46;;;;;;;3.87;2.60;;;17.30;92.60;;;;;;6033374;23;20979;-76
2022/08/09 04:47:13;;;;;;;2.77;2.40;;;17.40;93.00;;;;;;6033646;23;20428;-76
2022/08/09 04:49:40;;;;;;;2.80;2.60;;;17.40;93.30;;;;;;6033147;23;20435;-76
2022/08/09 04:52:07;;;;;;;2.60;2.40;;;17.40;93.40;;;;;;6033829;23;20470;-76
2022/08/09 04:54:34;;;;;;;2.70;2.43;;;17.50;93.20;;;;;;6033636;23;20475;-77
2022/08/09 04:57:02;;;;;;;2.70;2.50;;;17.60;93.40;;;;;;6033452;23;20432;-76
2022/08/09 04:59:30;;;;;;;2.97;2.77;;;17.60;93.50;;;;;;6033752;23;20428;-76
2022/08/09 05:01:57;;;;;;;2.77;2.57;;;17.70;93.70;;;;;;6033372;23;20847;-76
2022/08/09 05:04:24;;;;;;;3.20;2.97;;;17.70;93.70;;;;;;6033299;23;20495;-76
2022/08/09 05:06:51;;;;;;;4.83;2.30;;;17.80;94.10;;;;;;6033387;23;20476;-76
2022/08/09 05:09:18;;;;;;;3.63;2.30;;;17.80;94.10;;;;;;6033570;23;20950;-76
2022/08/09 05:11:45;;;;;;;4.47;2.47;;;17.90;94.30;;;;;;6033633;23;20510;-76
2022/08/09 05:14:12;;;;;;;2.70;2.50;;;18.00;94.20;;;;;;6033543;23;20507;-76
2022/08/09 05:16:41;;;;;;;2.70;2.50;;;18.00;94.30;;;;;;6032953;23;20472;-76
2022/08/09 05:19:07;;;;;;;3.97;2.40;;;18.00;94.10;;;;;;6033839;23;20455;-76
2022/08/09 05:21:35;;;;;;;2.60;2.40;;;18.00;94.00;;;;;;6034716;23;20486;-76
2022/08/09 05:24:02;;;;;;;2.43;2.33;;;18.10;94.10;;;;;;6034819;23;20480;-76
2022/08/09 05:26:29;;;;;;;4.13;2.30;;;18.10;94.30;;;;;;6034456;23;20416;-76
2022/08/09 05:28:56;;;;;;;7.30;3.10;;;18.20;94.60;;;;;;6034875;23;20448;-76
2022/08/09 05:31:23;;;;;;;3.47;2.90;;;18.30;94.90;;;;;;6034293;23;20440;-76
2022/08/09 05:33:51;;;;;;;3.00;2.70;;;18.30;95.00;;;;;;6034913;23;20466;-76
2022/08/09 05:36:18;;;;;;;3.00;2.63;;;18.30;95.20;;;;;;6034364;23;20467;-77
2022/08/09 05:38:46;;;;;;;3.03;2.70;;;18.30;95.50;;;;;;6034848;23;20425;-76
2022/08/09 05:41:13;;;;;;;3.30;3.10;;;18.30;95.20;;;;;;6034725;23;20449;-76
2022/08/09 05:43:40;;;;;;;2.80;2.60;;;18.30;95.30;;;;;;6034517;23;20931;-76
2022/08/09 05:46:07;;;;;;;3.13;2.63;;;18.30;95.60;;;;;;6034196;23;20672;-76
2022/08/09 05:48:34;;;;;;;4.10;2.80;;;18.30;95.80;;;;;;6034890;23;20435;-76
2022/08/09 05:51:02;;;;;;;2.90;2.70;;;18.30;96.10;;;;;;6034763;23;20464;-76
2022/08/09 05:53:29;;;;;;;3.77;2.83;;;18.40;96.40;;;;;;6034352;23;20761;-76
2022/08/09 05:55:56;;;;;;;3.50;3.20;;;18.40;96.90;;;;;;6034691;23;20555;-76
2022/08/09 05:58:24;;;;;;;4.53;2.93;;;18.50;97.20;;;;;;6034363;23;20422;-76
2022/08/09 06:00:51;;;;;;;5.03;2.60;;;18.60;97.10;;;;;;6034688;23;20482;-76
2022/08/09 06:03:18;;;;;;;3.27;3.07;;;18.70;97.40;;;;;;6034553;23;20931;-77
2022/08/09 06:05:45;;;;;;;4.60;2.87;;;18.80;97.00;;;;;;6034062;23;20482;-77
2022/08/09 06:08:13;;;;;;;2.67;2.47;;;18.90;97.00;;;;;;6034675;23;20455;-76
2022/08/09 06:10:40;;;;;;;5.13;2.60;;;19.00;96.90;;;;;;6034184;23;20448;-76
2022/08/09 06:13:09;;;;;;;3.33;2.70;;;19.10;96.10;;;;;;6034152;23;20432;-76
2022/08/09 06:15:36;;;;;;;3.07;2.87;;;19.20;96.00;;;;;;6034480;23;20491;-77
2022/08/09 06:18:03;;;;;;;3.67;2.97;;;19.20;95.70;;;;;;6034647;23;20431;-77
2022/08/09 06:20:31;;;;;;;3.07;2.87;;;19.30;95.70;;;;;;6034391;23;20475;-77
2022/08/09 06:22:58;;;;;;;2.73;2.53;;;19.20;95.10;;;;;;6034223;23;20438;-76
2022/08/09 06:25:27;;;;;;;5.17;2.90;;;19.20;95.60;;;;;;6034133;23;20424;-76
2022/08/09 06:27:54;;;;;;;4.67;2.90;;;19.10;95.70;;;;;;6034588;23;20488;-76
2022/08/09 06:30:21;;;;;;;3.30;3.10;;;19.20;95.50;;;;;;6034546;23;20474;-77
2022/08/09 06:32:50;;;;;;;2.83;2.53;;;19.20;95.50;;;;;;6034325;23;20455;-76
2022/08/09 06:35:17;;;;;;;3.30;3.10;;;19.20;95.50;;;;;;6033789;23;20432;-76
2022/08/09 06:37:44;;;;;;;2.93;2.73;;;19.40;95.50;;;;;;6034316;23;20479;-77
2022/08/09 06:40:12;;;;;;;2.70;2.50;;;19.50;95.60;;;;;;6034156;23;20919;-76
2022/08/09 06:42:40;;;;;;;3.60;2.37;;;19.70;94.90;;;;;;6034561;23;20494;-77
2022/08/09 06:45:08;;;;;;;2.90;2.70;;;19.90;94.70;;;;;;6034043;23;20425;-77
2022/08/09 06:47:36;;;;;;;2.60;2.40;;;20.10;94.40;;;;;;6033901;23;20747;-77
2022/08/09 06:50:04;;;;;;;3.00;2.63;;;20.40;93.80;;;;;;6034166;23;20426;-76
2022/08/09 06:52:31;;;;;;;2.63;2.53;;;20.60;93.00;;;;;;6033908;23;20495;-77
2022/08/09 06:54:58;;;;;;;4.83;2.47;;;20.90;92.30;;;;;;6033635;23;20427;-76
2022/08/09 06:57:25;;;;;;;2.77;2.57;;;21.10;91.70;;;;;;6034449;23;20472;-76
2022/08/09 06:59:53;;;;;;;2.53;2.30;;;21.30;90.60;;;;;;6033946;23;20483;-77
2022/08/09 07:02:22;;;;;;;2.80;2.60;;;21.50;90.50;;;;;;6034693;23;20506;-76
2022/08/09 07:04:49;;;;;;;2.30;2.10;;;21.60;90.60;;;;;;6033895;23;20478;-77
2022/08/09 07:07:16;;;;;;;3.00;2.40;;;21.80;90.60;;;;;;6033982;23;20791;-76
2022/08/09 07:09:43;;;;;;;2.83;2.63;;;22.10;90.60;;;;;;6033923;23;20823;-77
2022/08/09 07:12:11;;;;;;;3.00;2.40;;;22.30;89.10;;;;;;6034012;23;20973;-77
2022/08/09 07:14:38;;;;;;;3.03;2.60;;;22.50;89.80;;;;;;6034186;23;20458;-78
2022/08/09 07:17:06;;;;;;;2.43;2.23;;;22.90;88.10;;;;;;6033815;23;21045;-77
2022/08/09 07:19:34;;;;;;;3.60;2.60;;;23.30;86.10;;;;;;6034106;23;20463;-77
2022/08/09 07:22:01;;;;;;;2.40;2.20;;;23.70;83.00;;;;;;6033587;23;20446;-77
2022/08/09 07:24:30;;;;;;;2.93;2.50;;;24.00;82.60;;;;;;6034394;23;20427;-77
2022/08/09 07:26:57;;;;;;;3.40;2.33;;;24.00;80.30;;;;;;6033870;23;20449;-77
2022/08/09 07:29:25;;;;;;;2.83;2.53;;;23.90;80.40;;;;;;6034068;23;20753;-77
2022/08/09 07:31:52;;;;;;;2.53;2.43;;;24.10;80.50;;;;;;6033682;23;21053;-77
2022/08/09 07:34:21;;;;;;;3.20;2.87;;;24.30;80.10;;;;;;6033894;23;20459;-77
2022/08/09 07:36:48;;;;;;;2.60;2.30;;;24.50;79.00;;;;;;6033593;23;20488;-77
2022/08/09 07:39:15;;;;;;;3.07;2.37;;;24.80;78.00;;;;;;6033836;23;20868;-77
2022/08/09 07:41:42;;;;;;;2.83;2.63;;;25.00;76.60;;;;;;6033535;23;20828;-77
2022/08/09 07:44:09;;;;;;;2.70;2.50;;;25.40;76.50;;;;;;6034192;23;20416;-77
2022/08/09 07:46:36;;;;;;;3.80;2.30;;;25.80;73.60;;;;;;6033707;23;20479;-77
2022/08/09 07:49:04;;;;;;;2.83;2.53;;;25.90;74.00;;;;;;6034032;23;20424;-77
2022/08/09 07:51:32;;;;;;;3.90;2.67;;;26.00;72.40;;;;;;6033974;23;20491;-78
2022/08/09 07:53:59;;;;;;;2.60;2.30;;;26.20;72.90;;;;;;6033821;23;20447;-77
2022/08/09 07:56:27;;;;;;;2.60;2.40;;;26.30;71.90;;;;;;6033791;23;20503;-77
2022/08/09 07:58:54;;;;;;;2.43;2.23;;;26.70;72.00;;;;;;6033758;23;20471;-77
2022/08/09 08:01:21;;;;;;;2.90;2.10;;;27.20;71.10;;;;;;6033600;23;20444;-77
2022/08/09 08:03:48;;;;;;;3.33;2.20;;;27.60;68.80;;;;;;6033920;23;20923;-77
2022/08/09 08:06:15;;;;;;;3.20;2.50;;;27.90;67.00;;;;;;6033684;23;20420;-77
2022/08/09 08:08:43;;;;;;;2.50;2.30;;;28.00;66.60;;;;;;6033752;23;20417;-77
2022/08/09 08:11:10;;;;;;;2.83;2.23;;;28.10;66.20;;;;;;6033357;23;20452;-77
2022/08/09 08:13:37;;;;;;;2.30;2.10;;;28.20;65.10;;;;;;6033673;23;21078;-77
2022/08/09 08:16:05;;;;;;;4.47;2.33;;;28.50;65.10;;;;;;6033196;23;20448;-75
2022/08/09 08:18:32;;;;;;;4.67;2.47;;;28.80;64.10;;;;;;6033840;23;20486;-77
2022/08/09 08:20:59;;;;;;;2.73;2.40;;;29.20;62.40;;;;;;6033543;23;20484;-78
2022/08/09 08:23:27;;;;;;;2.50;2.30;;;29.40;61.50;;;;;;6033355;23;20757;-76
2022/08/09 08:25:55;;;;;;;4.03;2.70;;;29.20;61.70;;;;;;6033534;23;20474;-77
2022/08/09 08:28:22;;;;;;;5.97;2.70;;;29.50;62.10;;;;;;6033630;23;20428;-76
2022/08/09 08:30:49;;;;;;;2.50;2.07;;;29.40;60.20;;;;;;6033822;23;20502;-76
2022/08/09 08:33:16;;;;;;;2.33;2.13;;;29.40;60.60;;;;;;6034008;23;20432;-77
2022/08/09 08:35:43;;;;;;;2.50;2.30;;;29.70;60.20;;;;;;6033069;23;20431;-77
2022/08/09 08:38:11;;;;;;;2.50;2.20;;;29.90;60.00;;;;;;6033414;23;20464;-77
2022/08/09 08:40:38;;;;;;;2.40;2.23;;;30.10;59.80;;;;;;6033506;23;20440;-77
2022/08/09 08:43:07;;;;;;;4.40;2.20;;;30.30;58.90;;;;;;6033347;23;20420;-77
2022/08/09 08:45:38;;;;;;;2.47;2.23;;;30.70;58.20;;;;;;6032887;23;20925;-77
2022/08/09 08:48:06;;;;;;;2.40;2.10;;;30.70;58.30;;;;;;6033556;23;20507;-77
2022/08/09 08:50:33;;;;;;;3.03;2.70;;;30.60;57.40;;;;;;6033269;23;20453;-77
2022/08/09 08:53:00;;;;;;;2.57;2.30;;;30.20;57.20;;;;;;6033405;23;20431;-77
2022/08/09 08:55:29;;;;;;;2.50;2.30;;;30.10;58.30;;;;;;6033883;23;20423;-76
2022/08/09 08:57:56;;;;;;;2.23;2.03;;;30.20;58.40;;;;;;6034385;23;20464;-77
2022/08/09 09:00:26;;;;;;;2.20;2.10;;;30.70;57.40;;;;;;6034503;23;20451;-77
2022/08/09 09:02:58;;;;;;;2.67;2.47;;;30.70;56.90;;;;;;6034841;23;20836;-76
2022/08/09 09:05:25;;;;;;;2.27;2.03;;;30.70;56.00;;;;;;6034353;23;20428;-76
2022/08/09 09:07:53;;;;;;;4.10;2.27;;;30.70;57.70;;;;;;6034441;23;20602;-77
2022/08/09 09:10:23;;;;;;;2.33;2.00;;;30.90;56.20;;;;;;6034375;23;20483;-76
2022/08/09 09:12:50;;;;;;;2.73;2.30;;;31.00;55.50;;;;;;6034331;23;20435;-76
2022/08/09 09:15:18;;;;;;;2.50;2.30;;;31.00;55.20;;;;;;6034266;23;20447;-76
2022/08/09 09:17:47;;;;;;;2.53;1.90;;;31.10;56.40;;;;;;6034614;23;20471;-76
2022/08/09 09:20:15;;;;;;;2.50;2.30;;;31.40;55.30;;;;;;6034537;23;20483;-76
2022/08/09 09:22:55;;;;;;;2.63;2.43;;;31.50;54.60;;;;;;6034313;23;20442;-76
2022/08/09 09:25:34;;;;;;;2.00;1.90;;;31.80;54.70;;;;;;6034239;23;20813;-77
2022/08/09 09:28:02;;;;;;;2.20;2.00;;;32.30;53.40;;;;;;6034183;23;20420;-76
2022/08/09 09:30:29;;;;;;;3.47;2.20;;;32.70;53.40;;;;;;6034502;23;20462;-77
2022/08/09 09:33:09;;;;;;;4.60;2.50;;;33.20;52.50;;;;;;6034499;23;20432;-77
2022/08/09 09:35:52;;;;;;;2.27;1.80;;;33.70;51.30;;;;;;6034077;23;20475;-76
2022/08/09 09:38:22;;;;;;;2.20;2.00;;;34.00;51.10;;;;;;6034555;23;20471;-76
2022/08/09 09:40:49;;;;;;;2.00;1.90;;;34.40;49.80;;;;;;6034489;23;20448;-77
2022/08/09 09:43:20;;;;;;;2.10;2.00;;;34.40;49.10;;;;;;6034562;23;20421;-76
2022/08/09 09:45:49;;;;;;;2.50;2.30;;;34.50;48.70;;;;;;6033674;23;20435;-76
2022/08/09 09:48:18;;;;;;;2.30;1.87;;;33.90;48.50;;;;;;6034688;23;20468;-77
2022/08/09 09:50:47;;;;;;;2.03;1.70;;;33.70;48.10;;;;;;6034418;23;20519;-77
2022/08/09 09:53:16;;;;;;;3.43;1.97;;;33.50;47.40;;;;;;6034515;23;20424;-78
2022/08/09 09:55:53;;;;;;;3.07;2.03;;;33.20;46.70;;;;;;6034208;23;20455;-74
2022/08/09 09:58:21;;;;;;;2.20;2.00;;;32.90;48.20;;;;;;6034308;23;20471;-75
2022/08/09 10:00:50;;;;;;;2.50;2.30;;;33.20;46.80;;;;;;6034691;23;20842;-75
2022/08/09 10:03:18;;;;;;;1.90;1.80;;;33.50;47.00;;;;;;6034464;23;20436;-75
2022/08/09 10:05:58;;;;;;;2.27;2.07;;;33.70;46.50;;;;;;6033826;23;20503;-74
2022/08/09 10:08:25;;;;;;;2.77;2.20;;;33.40;47.00;;;;;;6034357;23;20463;-74
2022/08/09 10:10:52;;;;;;;2.20;1.80;;;33.60;46.60;;;;;;6034364;23;20452;-74
2022/08/09 10:13:19;;;;;;;1.90;1.70;;;33.00;47.00;;;;;;6034365;23;20969;-75
2022/08/09 10:15:48;;;;;;;2.20;1.90;;;33.20;46.20;;;;;;6034403;23;20432;-77
2022/08/09 10:18:16;;;;;;;2.53;2.20;;;33.10;46.20;;;;;;6034516;23;20471;-77
2022/08/09 10:20:44;;;;;;;2.43;2.23;;;32.10;47.40;;;;;;6034212;23;20452;-77
2022/08/09 10:23:17;;;;;;;2.20;2.00;;;32.00;47.40;;;;;;6034174;23;20470;-77
2022/08/09 10:25:45;;;;;;;2.50;2.10;;;32.20;47.50;;;;;;6034358;23;20432;-77
2022/08/09 10:28:13;;;;;;;1.83;1.73;;;32.60;47.60;;;;;;6034580;23;20432;-77
2022/08/09 10:30:41;;;;;;;1.73;1.63;;;32.60;46.50;;;;;;6034430;23;20444;-77
2022/08/09 10:33:09;;;;;;;2.07;1.90;;;32.40;47.10;;;;;;6034214;23;20451;-77
2022/08/09 10:35:37;;;;;;;2.20;2.00;;;32.30;47.00;;;;;;6033989;23;20543;-77
2022/08/09 10:38:05;;;;;;;1.93;1.80;;;32.10;47.80;;;;;;6034292;23;20955;-77
2022/08/09 10:40:33;;;;;;;2.10;2.00;;;32.30;47.40;;;;;;6034125;23;20953;-78
2022/08/09 10:43:01;;;;;;;1.90;1.80;;;32.70;46.80;;;;;;6034547;23;20507;-77
2022/08/09 10:45:29;;;;;;;1.90;1.80;;;33.20;47.60;;;;;;6034014;23;20428;-77
2022/08/09 10:48:03;;;;;;;1.93;1.73;;;33.80;45.80;;;;;;6034263;23;20451;-77
2022/08/09 10:53:42;;;;;;;2.07;1.87;;;34.20;44.60;;;;;;6034089;23;20432;-77
2022/08/09 10:56:19;;;;;;;2.03;1.93;;;34.60;43.90;;;;;;6033906;23;20427;-77
2022/08/09 10:58:46;;;;;;;2.13;1.97;;;33.90;43.40;;;;;;6034127;23;20468;-77
2022/08/09 11:01:39;;;;;;;2.10;2.00;;;33.50;44.50;;;;;;6034400;23;20444;-77
2022/08/09 11:04:20;;;;;;;4.20;2.10;;;33.70;44.40;;;;;;6034065;23;20424;-77
2022/08/09 11:06:50;;;;;;;2.10;2.00;;;34.10;43.40;;;;;;6033344;23;20451;-77
2022/08/09 11:09:39;;;;;;;2.37;1.70;;;34.50;43.80;;;;;;6034339;23;20421;-78
2022/08/09 11:12:14;;;;;;;2.20;1.60;;;34.90;43.70;;;;;;6034010;23;20491;-77
2022/08/09 11:14:43;;;;;;;2.10;2.00;;;35.30;42.70;;;;;;6034087;23;20470;-77
2022/08/09 11:17:51;;;;;;;2.00;1.80;;;35.60;41.90;;;;;;6033152;23;20503;-74
2022/08/09 11:20:37;;;;;;;1.80;1.70;;;35.20;41.30;;;;;;6034271;23;20443;-76
2022/08/09 11:23:04;;;;;;;3.47;1.93;;;33.80;43.10;;;;;;6034137;23;20420;-75
2022/08/09 11:25:47;;;;;;;1.77;1.67;;;33.60;44.30;;;;;;6033635;23;20420;-74
2022/08/09 11:28:40;;;;;;;3.17;2.00;;;34.20;43.60;;;;;;6034414;23;20447;-75
2022/08/09 11:31:46;;;;;;;2.33;2.00;;;34.90;42.50;;;;;;6033857;23;20444;-75
2022/08/09 11:34:27;;;;;;;2.90;2.07;;;35.50;41.90;;;;;;6016764;23;20497;-77
2022/08/09 11:36:59;;;;;;;2.80;1.90;;;35.70;41.30;;;;;;6033838;23;20447;-78
2022/08/09 11:39:26;;;;;;;2.07;1.50;;;35.80;41.30;;;;;;6033912;23;20959;-78
2022/08/09 11:41:54;;;;;;;2.67;1.70;;;35.70;42.10;;;;;;6034121;23;20485;-78
2022/08/09 11:44:43;;;;;;;2.17;1.80;;;35.50;40.90;;;;;;6033808;23;20830;-77
2022/08/09 11:47:10;;;;;;;3.13;1.80;;;35.10;41.80;;;;;;6033840;23;20836;-77
2022/08/09 11:49:58;;;;;;;1.97;1.77;;;35.10;40.60;;;;;;6033991;23;20986;-77
2022/08/09 11:52:26;;;;;;;2.67;2.00;;;34.40;41.20;;;;;;6034047;23;20434;-77
2022/08/09 11:55:29;;;;;;;1.60;1.50;;;34.50;41.40;;;;;;6033688;23;20450;-77
2022/08/09 11:57:58;;;;;;;1.70;1.60;;;34.80;40.50;;;;;;5974389;24;20469;-77
2022/08/09 12:00:27;;;;;;;1.63;1.53;;;35.30;39.90;;;;;;5974612;23;21000;-77
2022/08/09 12:02:54;;;;;;;1.93;1.83;;;35.20;40.10;;;;;;6003382;23;20486;-78
2022/08/09 12:05:22;;;;;;;2.13;1.93;;;34.50;40.90;;;;;;6033588;23;20987;-77
2022/08/09 12:07:49;;;;;;;2.20;1.80;;;33.80;40.90;;;;;;6033879;23;20792;-76
2022/08/09 12:10:17;;;;;;;2.17;1.47;;;33.50;42.00;;;;;;6033813;23;20448;-76
2022/08/09 12:12:46;;;;;;;1.87;1.77;;;33.40;40.90;;;;;;6033904;23;20491;-76
2022/08/09 12:15:24;;;;;;;1.87;1.50;;;33.30;41.20;;;;;;6033715;23;20519;-77
2022/08/09 12:17:52;;;;;;;2.00;1.90;;;33.80;40.70;;;;;;6033401;23;20555;-75
2022/08/09 12:20:21;;;;;;;2.17;1.80;;;33.80;40.70;;;;;;6033865;23;20543;-76
2022/08/09 12:22:51;;;;;;;1.93;1.70;;;33.50;41.60;;;;;;6034324;23;20515;-76
2022/08/09 12:25:19;;;;;;;1.60;1.50;;;33.80;42.00;;;;;;6033799;23;20416;-76
2022/08/09 12:27:46;;;;;;;3.03;2.00;;;34.30;40.50;;;;;;6033741;23;20432;-75
2022/08/09 12:30:14;;;;;;;1.93;1.70;;;34.80;40.00;;;;;;6034581;23;20487;-76
2022/08/09 12:32:43;;;;;;;3.63;1.67;;;35.50;40.10;;;;;;6035038;23;20456;-77
2022/08/09 12:35:10;;;;;;;1.73;1.57;;;36.10;38.80;;;;;;6034667;23;20927;-77
2022/08/09 12:37:39;;;;;;;2.10;1.90;;;36.60;39.20;;;;;;6034615;23;20460;-76
2022/08/09 12:40:08;;;;;;;2.10;1.70;;;36.60;37.70;;;;;;6034731;23;20543;-76
2022/08/09 12:42:36;;;;;;;2.60;1.80;;;35.60;37.70;;;;;;6034678;23;20486;-75
2022/08/09 12:45:05;;;;;;;2.60;2.37;;;35.90;37.80;;;;;;6034683;23;20416;-76
2022/08/09 12:47:32;;;;;;;2.23;1.63;;;36.40;38.50;;;;;;6034803;23;20518;-76
2022/08/09 12:50:19;;;;;;;2.33;1.80;;;37.10;37.70;;;;;;6034795;23;20967;-76
2022/08/09 12:52:48;;;;;;;1.80;1.70;;;37.30;37.30;;;;;;6034827;23;20432;-77
2022/08/09 12:55:25;;;;;;;3.03;1.60;;;37.70;37.10;;;;;;6034435;23;20476;-76
2022/08/09 12:57:52;;;;;;;1.80;1.70;;;38.00;36.10;;;;;;6034778;23;20464;-76
2022/08/09 13:00:22;;;;;;;1.83;1.63;;;38.00;36.00;;;;;;6034832;23;20661;-76
2022/08/09 13:02:51;;;;;;;3.27;1.90;;;38.30;35.80;;;;;;6034756;23;20844;-76